CPA3 weather

Palmerston (District Hospital) Heliport
Palmerston, Ontario, Canada

Public forecast

Using degrees Celsius for public forecast. Weather courtesy of forecast.io.

METAR (pilot weather report)

Closest report is Waterloo Airport, 30.3 nm (56.1 km) SE. Retrieved 2019/09/24 07:00 UTC (38 minutes ago):

CYKF 240700Z AUTO 28011KT 9SM BKN014 BKN022 OVC029 14/14 A2985 RMK SLP108 DENSITY ALT 1200FT

TAF (pilot weather forecast)

Closest forecast is Waterloo Airport, 30.3 nm (56.1 km) SE. Retrieved 2019/09/24 08:39 UTC (0 seconds ago):

TAF TAF CYKF 240738Z 2408/2420 28010KT P6SM BKN030 TEMPO 2408/2414 4SM BR BKN020 FM241400 32010KT P6SM BKN030 FM241700 32012KT P6SM BKN050 RMK FCST BASED ON AUTO OBS. NXT FCST BY 241400Z